Bangor, ME

6:10 PM EDT on July 27, 2016 (GMT -0400)
Essex St Hill | | Change Station

Elev 208 ft 44.82 °N, 68.77 °W | Updated 8 seconds ago

Partly Cloudy
Partly Cloudy
91.7 °F
Feels Like 94 °F
N
0.0
Wind Variable Wind from WSW
Gusts 4.0 mph

Today
High -- | Low -- °F
--% Chance of Precip.
Yesterday
High -- | Low -- °F
Precip. -- in
Pressure 29.84 in
Visibility 10.0 miles
Clouds Few 7000 ft
Few 25000 ft
Heat Index 94 °F
Dew Point 65 °F
Humidity 42%
Rainfall 0.00 in
Snow Depth Not available.
5:15 AM 8:06 PM
Last Quarter, 39% visible
METAR KBGR 272153Z 17009KT 10SM FEW070 FEW250 31/18 A2985 RMK AO2 SLP103 T03060178
Pressure 29.84 in
Visibility 10.0 miles
Clouds Few 7000 ft
Few 25000 ft
Heat Index 94 °F
Dew Point 65 °F
Humidity 42%
Rainfall 0.00 in
Snow Depth Not available.
5:15 AM 8:06 PM
Last Quarter, 39% visible
METAR KBGR 272153Z 17009KT 10SM FEW070 FEW250 31/18 A2985 RMK AO2 SLP103 T03060178

10-Day Weather Forecast

Almanac

Astronomy

Jul. 27, 2016 Rise Set
Actual Time
Civil Twilight
Nautical Twilight
Astronomical Twilight
Moon
Length of Visible Light
Length of Day
Tomorrow will be .
, % of the Moon is Illuminated

Today's Extremes

State Highs State Lows

Community

WunderPhotos

Upload Photos

1,927,944 photos uploaded!

WunderBlog® & News

Nearby

Air Quality

  Air Quality AQ Index Pollutant
Not available.

Snow Depth

Station Depth Elevation

Earthquake Activity

City Distance Mag. Time & Date
Minimum magnitude displayed is 2.5.

Coastal Water Temperatures

Place Temperature

Stations

Nearby Weather Stations

Station Location Temp. Windchill Dew Point Humidity Wind Precip. Elev Updated Type
                   

Watches & Warnings

There are currently no watches in effect.